Time;durP1;ratioP1;P1;durP2;ratioP2;P2;SDS_P1;SDS_P2;PMS_P1;PMS_P2;Temp;Humidity;BMP_temperature;BMP_pressure;BME280_temperature;BME280_humidity;BME280_pressure;Samples;Min_cycle;Max_cycle;Signal;HPM_P1;HPM_P2
2022/04/23 00:01:44;;;;;;;11.30;9.65;;;358.50;2329.60;;;;;;5033738;28;20112;-56
2022/04/23 00:04:11;;;;;;;6.30;4.10;;;358.50;2329.60;;;;;;5033404;28;20419;-57
2022/04/23 00:06:37;;;;;;;4.65;2.20;;;358.40;2329.60;;;;;;5033432;28;20029;-57
2022/04/23 00:09:04;;;;;;;4.00;2.42;;;333.70;2329.60;;;;;;5033582;28;20422;-55
2022/04/23 00:11:29;;;;;;;4.05;1.98;;;333.40;2329.60;;;;;;5033829;28;20082;-57
2022/04/23 00:13:55;;;;;;;2.63;1.92;;;333.30;2329.60;;;;;;5033225;28;20116;-57
2022/04/23 00:16:23;;;;;;;3.10;1.45;;;333.30;2329.60;;;;;;5033610;28;20021;-60
2022/04/23 00:18:48;;;;;;;3.75;1.77;;;333.30;2329.60;;;;;;5033317;28;20428;-57
2022/04/23 00:21:14;;;;;;;2.70;1.55;;;333.20;2329.60;;;;;;5033119;28;20068;-57
2022/04/23 00:23:40;;;;;;;4.57;1.75;;;333.20;2329.60;;;;;;5033353;28;20029;-59
2022/04/23 00:26:06;;;;;;;4.35;2.60;;;333.20;2329.60;;;;;;5033066;28;20464;-58
2022/04/23 00:28:32;;;;;;;1.90;1.38;;;333.10;2329.60;;;;;;5033178;28;20026;-60
2022/04/23 00:30:58;;;;;;;2.38;1.58;;;333.00;2329.60;;;;;;5033143;28;20026;-58
2022/04/23 00:33:24;;;;;;;2.67;1.60;;;332.90;2329.60;;;;;;5032720;28;20052;-59
2022/04/23 00:35:50;;;;;;;2.15;1.40;;;333.20;2329.60;;;;;;5032903;28;20053;-58
2022/04/23 00:38:16;;;;;;;2.75;1.38;;;332.90;2329.60;;;;;;5032851;28;20021;-56
2022/04/23 00:40:43;;;;;;;2.80;1.90;;;332.80;2329.60;;;;;;5032774;28;20046;-57
2022/04/23 00:43:42;;;;;;;3.28;1.70;;;308.10;2304.00;;;;;;5032961;28;20512;-57
2022/04/23 00:46:08;;;;;;;2.08;1.33;;;308.10;2304.00;;;;;;4991279;28;20034;-58
2022/04/23 00:48:34;;;;;;;2.63;1.85;;;308.10;2304.00;;;;;;4990930;28;20018;-60
2022/04/23 00:51:00;;;;;;;5.22;2.25;;;308.10;2304.00;;;;;;4991257;28;20027;-60
2022/04/23 00:53:28;;;;;;;2.95;1.77;;;308.00;2304.00;;;;;;4991143;28;20045;-61
2022/04/23 00:55:54;;;;;;;2.30;1.58;;;308.00;2304.00;;;;;;4990808;28;20081;-60
2022/04/23 00:58:20;;;;;;;2.10;1.45;;;308.00;2304.00;;;;;;4991279;28;20113;-57
2022/04/23 01:00:47;;;;;;;2.78;1.23;;;307.90;2304.00;;;;;;4990800;28;20165;-60
2022/04/23 01:03:13;;;;;;;3.45;1.58;;;308.00;2304.00;;;;;;4990672;28;20038;-57
2022/04/23 01:05:44;;;;;;;1.67;1.17;;;308.00;2304.00;;;;;;4990991;28;20039;-58
2022/04/23 01:08:13;;;;;;;2.25;1.38;;;308.00;2304.00;;;;;;4990931;28;20476;-60
2022/04/23 01:10:41;;;;;;;2.75;1.30;;;308.00;2304.00;;;;;;4990959;28;20050;-61
2022/04/23 01:13:08;;;;;;;3.25;1.50;;;308.10;2304.00;;;;;;4990822;28;20030;-61
2022/04/23 01:15:34;;;;;;;2.15;1.10;;;308.00;2304.00;;;;;;4990478;28;20041;-60
2022/04/23 01:18:00;;;;;;;2.25;1.42;;;308.00;2304.00;;;;;;4990708;28;20396;-60
2022/04/23 01:20:26;;;;;;;2.45;1.48;;;308.00;2304.00;;;;;;4990236;28;20066;-58
2022/04/23 01:22:51;;;;;;;2.15;1.00;;;308.00;2304.00;;;;;;5017551;28;20025;-62
2022/04/23 01:25:17;;;;;;;4.90;1.70;;;308.00;2304.00;;;;;;5031843;28;20068;-58
2022/04/23 01:27:47;;;;;;;2.80;1.40;;;308.00;2304.00;;;;;;5031799;28;20032;-59
2022/04/23 01:30:13;;;;;;;1.55;1.42;;;308.00;2304.00;;;;;;5031746;28;20357;-57
2022/04/23 01:32:39;;;;;;;1.92;1.08;;;308.10;2304.00;;;;;;5031799;28;20032;-60
2022/04/23 01:35:06;;;;;;;2.72;1.42;;;332.80;2329.60;;;;;;5030688;28;20056;-61
2022/04/23 01:37:32;;;;;;;1.92;1.13;;;332.80;2329.60;;;;;;5031736;28;20120;-58
2022/04/23 01:39:57;;;;;;;2.15;1.08;;;308.10;2304.00;;;;;;5031692;28;20053;-60
2022/04/23 01:42:23;;;;;;;2.08;1.15;;;307.90;2304.00;;;;;;5031630;28;20017;-57
2022/04/23 01:44:51;;;;;;;2.03;1.15;;;307.80;2304.00;;;;;;5031580;28;20029;-62
2022/04/23 01:47:17;;;;;;;1.77;1.25;;;307.80;2304.00;;;;;;5031569;28;20510;-59
2022/04/23 01:49:44;;;;;;;2.60;1.45;;;307.70;2304.00;;;;;;5031221;28;20022;-60
2022/04/23 01:52:10;;;;;;;2.70;1.33;;;307.70;2304.00;;;;;;5031613;28;20030;-60
2022/04/23 01:54:36;;;;;;;1.35;1.15;;;307.70;2304.00;;;;;;5031509;28;20025;-59
2022/04/23 01:57:03;;;;;;;1.95;1.25;;;307.70;2304.00;;;;;;5031508;28;20025;-57
2022/04/23 01:59:30;;;;;;;2.03;1.23;;;307.80;2304.00;;;;;;5031344;28;20026;-61
2022/04/23 02:01:56;;;;;;;1.92;1.30;;;307.70;2304.00;;;;;;5031251;28;20357;-60
2022/04/23 02:04:22;;;;;;;1.92;1.30;;;307.70;2304.00;;;;;;5031397;28;20029;-61
2022/04/23 02:06:48;;;;;;;3.28;1.92;;;307.70;2304.00;;;;;;5030546;28;20074;-59
2022/04/23 02:09:14;;;;;;;3.13;1.63;;;307.70;2304.00;;;;;;5031029;28;20033;-60
2022/04/23 02:11:40;;;;;;;3.92;1.55;;;307.90;2304.00;;;;;;5031225;28;20013;-60
2022/04/23 02:14:06;;;;;;;2.58;1.85;;;308.10;2304.00;;;;;;5031114;28;20033;-57
2022/04/23 02:16:32;;;;;;;1.50;1.13;;;332.80;2329.60;;;;;;5031107;28;20025;-57
2022/04/23 02:18:58;;;;;;;2.65;1.40;;;332.90;2329.60;;;;;;5030989;28;20028;-57
2022/04/23 02:21:25;;;;;;;2.22;1.40;;;333.00;2329.60;;;;;;5030850;28;20033;-60
2022/04/23 02:23:53;;;;;;;4.40;1.70;;;333.10;2329.60;;;;;;5031153;28;20022;-61
2022/04/23 02:26:22;;;;;;;3.95;1.98;;;333.10;2329.60;;;;;;5030977;28;20033;-58
2022/04/23 02:28:48;;;;;;;2.50;2.10;;;332.90;2329.60;;;;;;5030584;28;20035;-56
2022/04/23 02:31:14;;;;;;;4.47;2.28;;;333.00;2329.60;;;;;;5030599;28;20025;-57
2022/04/23 02:33:40;;;;;;;7.97;3.28;;;333.00;2329.60;;;;;;5030724;28;20068;-59
2022/04/23 02:36:07;;;;;;;3.03;1.73;;;333.00;2329.60;;;;;;5030432;28;20069;-60
2022/04/23 02:38:40;;;;;;;2.42;1.50;;;333.10;2329.60;;;;;;5030507;28;20035;-60
2022/04/23 02:41:06;;;;;;;5.30;2.00;;;333.20;2329.60;;;;;;5030616;28;20125;-60
2022/04/23 02:43:35;;;;;;;5.00;1.42;;;333.20;2329.60;;;;;;5030477;28;20071;-56
2022/04/23 02:46:05;;;;;;;3.85;2.35;;;333.20;2329.60;;;;;;5030621;28;20025;-61
2022/04/23 02:48:31;;;;;;;4.00;2.15;;;333.30;2329.60;;;;;;5029241;28;20380;-60
2022/04/23 02:50:57;;;;;;;2.50;1.60;;;333.30;2329.60;;;;;;5030279;28;20025;-60
2022/04/23 02:53:23;;;;;;;3.10;1.83;;;333.30;2329.60;;;;;;5030809;28;20037;-62
2022/04/23 02:55:49;;;;;;;6.68;3.17;;;333.30;2329.60;;;;;;5030541;28;20021;-56
2022/04/23 02:58:14;;;;;;;5.25;2.47;;;333.20;2329.60;;;;;;5030199;28;20021;-62
2022/04/23 03:00:42;;;;;;;5.93;2.38;;;333.30;2329.60;;;;;;5030342;28;20037;-56
2022/04/23 03:03:09;;;;;;;5.82;2.72;;;333.20;2329.60;;;;;;5030132;28;20033;-59
2022/04/23 03:05:35;;;;;;;5.93;3.47;;;333.00;2329.60;;;;;;5030104;28;20029;-61
2022/04/23 03:08:02;;;;;;;4.40;2.90;;;333.10;2329.60;;;;;;5030382;28;20030;-61
2022/04/23 03:10:29;;;;;;;4.38;2.72;;;333.10;2329.60;;;;;;5030098;28;20472;-59
2022/04/23 03:12:58;;;;;;;7.88;4.47;;;333.20;2329.60;;;;;;5030138;28;20071;-59
2022/04/23 03:15:28;;;;;;;5.95;3.45;;;333.10;2329.60;;;;;;5030059;28;20047;-60
2022/04/23 03:18:11;;;;;;;6.40;3.17;;;333.20;2329.60;;;;;;5030116;28;20076;-59
2022/04/23 03:20:37;;;;;;;11.18;3.53;;;333.10;2329.60;;;;;;5029868;28;20037;-56
2022/04/23 03:23:04;;;;;;;5.30;2.85;;;333.10;2329.60;;;;;;5029941;28;20032;-57
2022/04/23 03:25:33;;;;;;;6.80;2.90;;;333.20;2329.60;;;;;;5030062;28;20041;-56
2022/04/23 03:28:00;;;;;;;8.88;4.93;;;333.10;2329.60;;;;;;5030216;28;20467;-56
2022/04/23 03:30:26;;;;;;;6.65;2.78;;;333.20;2329.60;;;;;;5029884;28;20025;-60
2022/04/23 03:32:53;;;;;;;2.65;1.42;;;333.20;2329.60;;;;;;5030213;28;20105;-62
2022/04/23 03:35:19;;;;;;;4.82;2.35;;;333.20;2329.60;;;;;;5028597;28;20471;-60
2022/04/23 03:37:44;;;;;;;4.80;2.60;;;333.10;2329.60;;;;;;5029927;28;20080;-59
2022/04/23 03:40:11;;;;;;;4.40;1.95;;;333.20;2329.60;;;;;;5029916;28;20388;-60
2022/04/23 03:42:38;;;;;;;4.38;2.50;;;333.20;2329.60;;;;;;5029753;28;20029;-56
2022/04/23 03:45:05;;;;;;;5.65;2.92;;;333.10;2329.60;;;;;;5030062;28;20036;-58
2022/04/23 03:47:31;;;;;;;8.80;4.00;;;333.10;2329.60;;;;;;5029857;28;20108;-60
2022/04/23 03:50:02;;;;;;;5.13;3.17;;;333.00;2329.60;;;;;;5029766;28;20487;-60
2022/04/23 03:52:28;;;;;;;4.05;2.40;;;332.80;2329.60;;;;;;5029668;28;20029;-60
2022/04/23 03:54:53;;;;;;;3.22;2.33;;;332.90;2329.60;;;;;;5029935;28;20037;-56
2022/04/23 03:57:19;;;;;;;7.60;4.32;;;332.90;2329.60;;;;;;5030148;28;20452;-60
2022/04/23 03:59:45;;;;;;;15.05;7.60;;;332.80;2329.60;;;;;;5029683;28;20116;-57
2022/04/23 04:02:10;;;;;;;6.03;3.45;;;332.90;2329.60;;;;;;5029779;28;20128;-57
2022/04/23 04:04:36;;;;;;;24.52;13.85;;;333.00;2329.60;;;;;;5029376;28;20048;-60
2022/04/23 04:07:02;;;;;;;25.35;14.88;;;332.90;2329.60;;;;;;5029923;28;20038;-60
2022/04/23 04:09:28;;;;;;;5.50;3.15;;;332.90;2329.60;;;;;;5029697;28;20025;-62
2022/04/23 04:12:03;;;;;;;6.00;4.22;;;308.10;2304.00;;;;;;5029625;28;20028;-61
2022/04/23 04:14:31;;;;;;;6.80;5.75;;;308.10;2304.00;;;;;;5029514;28;20026;-60
2022/04/23 04:17:01;;;;;;;6.18;3.50;;;332.80;2329.60;;;;;;5029835;28;20095;-60
2022/04/23 04:19:28;;;;;;;3.53;2.25;;;308.10;2304.00;;;;;;5029203;28;20112;-61
2022/04/23 04:21:55;;;;;;;3.13;1.95;;;308.10;2304.00;;;;;;5029513;28;20418;-58
2022/04/23 04:24:21;;;;;;;2.83;1.48;;;332.80;2329.60;;;;;;5029723;28;20033;-59
2022/04/23 04:26:47;;;;;;;3.45;1.83;;;332.80;2329.60;;;;;;5029379;28;20388;-60
2022/04/23 04:29:14;;;;;;;2.15;1.33;;;332.90;2329.60;;;;;;5029448;28;20021;-59
2022/04/23 04:31:49;;;;;;;2.45;1.10;;;333.00;2329.60;;;;;;5032960;28;20057;-57
2022/04/23 04:34:23;;;;;;;2.15;1.50;;;333.20;2329.60;;;;;;5032573;28;20796;-60
2022/04/23 04:36:49;;;;;;;3.33;1.70;;;333.40;2329.60;;;;;;5033169;28;20116;-60
2022/04/23 04:39:17;;;;;;;2.05;1.50;;;333.60;2329.60;;;;;;5032567;28;20033;-60
2022/04/23 04:41:44;;;;;;;3.20;1.88;;;358.40;2329.60;;;;;;5032977;28;20079;-60
2022/04/23 04:44:10;;;;;;;3.42;2.00;;;358.40;2329.60;;;;;;5033017;28;20022;-57
2022/04/23 04:46:38;;;;;;;4.50;2.10;;;384.10;2329.60;;;;;;5032813;28;20033;-59
2022/04/23 04:49:04;;;;;;;7.10;5.35;;;436.10;2355.20;;;;;;5032544;28;20420;-61
2022/04/23 04:51:31;;;;;;;6.43;3.40;;;512.50;2150.40;;;;;;5032672;28;20403;-61
2022/04/23 04:53:56;;;;;;;3.17;2.10;;;563.50;1945.60;;;;;;5032577;28;20026;-60
2022/04/23 04:56:23;;;;;;;5.75;2.50;;;589.70;1715.20;;;;;;5032950;28;20025;-60
2022/04/23 04:58:49;;;;;;;3.03;2.38;;;640.00;1587.20;;;;;;5032703;28;20121;-60
2022/04/23 05:01:16;;;;;;;3.13;2.13;;;640.50;1536.00;;;;;;5032325;28;20033;-60
2022/04/23 05:03:43;;;;;;;4.10;2.20;;;665.70;1510.40;;;;;;5032440;28;20029;-59
2022/04/23 05:06:09;;;;;;;4.55;3.00;;;691.30;1433.60;;;;;;5032406;28;20025;-57
2022/04/23 05:08:36;;;;;;;2.88;2.28;;;691.90;1382.40;;;;;;5032263;28;20431;-57
2022/04/23 05:11:03;;;;;;;2.92;2.30;;;717.70;1305.60;;;;;;5032683;28;20025;-58
2022/04/23 05:13:29;;;;;;;6.38;3.03;;;743.20;1254.40;;;;;;5032450;28;20487;-61
2022/04/23 05:15:55;;;;;;;4.22;2.70;;;743.20;1254.40;;;;;;5032416;28;20036;-57
2022/04/23 05:18:21;;;;;;;5.10;3.28;;;743.00;1254.40;;;;;;5032457;28;20495;-58
2022/04/23 05:20:47;;;;;;;6.15;3.75;;;768.60;1177.60;;;;;;5031912;28;20033;-59
2022/04/23 05:23:13;;;;;;;5.22;3.85;;;794.50;1152.00;;;;;;5032209;28;20544;-62
2022/04/23 05:25:39;;;;;;;4.05;3.65;;;794.50;1152.00;;;;;;5032201;28;20025;-58
2022/04/23 05:28:05;;;;;;;4.55;3.45;;;794.40;1152.00;;;;;;5032005;28;20030;-58
2022/04/23 05:30:30;;;;;;;3.95;3.63;;;819.60;1126.40;;;;;;5032219;28;20029;-61
2022/04/23 05:32:56;;;;;;;4.60;4.10;;;820.10;1100.80;;;;;;5031869;28;20080;-58
2022/04/23 05:35:22;;;;;;;5.60;3.88;;;845.70;1075.20;;;;;;5031837;28;20508;-57
2022/04/23 05:37:47;;;;;;;4.70;3.38;;;845.70;1075.20;;;;;;5031516;28;20036;-61
2022/04/23 05:40:13;;;;;;;4.13;3.72;;;870.50;1075.20;;;;;;5031436;28;20048;-57
2022/04/23 05:42:39;;;;;;;4.43;4.03;;;845.30;1100.80;;;;;;5030559;28;20025;-62
2022/04/23 05:45:05;;;;;;;5.15;4.18;;;820.10;1100.80;;;;;;5031473;28;20033;-61
2022/04/23 05:47:31;;;;;;;4.50;4.10;;;819.70;1126.40;;;;;;5031600;28;20026;-59
2022/04/23 05:49:56;;;;;;;4.93;4.32;;;820.10;1100.80;;;;;;5031514;28;20032;-59
2022/04/23 05:52:22;;;;;;;4.93;4.43;;;819.90;1100.80;;;;;;5031738;28;20035;-60
2022/04/23 05:54:48;;;;;;;4.88;4.47;;;845.40;1100.80;;;;;;5031561;28;20029;-62
2022/04/23 05:57:15;;;;;;;4.57;4.10;;;845.40;1100.80;;;;;;5031419;28;20033;-59
2022/04/23 05:59:40;;;;;;;5.80;5.20;;;819.80;1126.40;;;;;;5031522;28;20053;-60
2022/04/23 06:02:07;;;;;;;6.18;5.68;;;845.50;1075.20;;;;;;5031098;28;20472;-57
2022/04/23 06:04:33;;;;;;;6.32;5.43;;;845.60;1075.20;;;;;;5031140;28;20025;-58
2022/04/23 06:06:59;;;;;;;6.85;6.32;;;870.70;1075.20;;;;;;5031269;28;20079;-58
2022/04/23 06:09:24;;;;;;;6.65;6.05;;;896.80;998.40;;;;;;5031176;28;20075;-58
2022/04/23 06:11:50;;;;;;;6.15;5.65;;;921.70;1024.00;;;;;;5031260;28;20025;-58
2022/04/23 06:14:16;;;;;;;8.30;7.47;;;896.90;972.80;;;;;;5031178;28;20033;-58
2022/04/23 06:16:41;;;;;;;7.35;6.45;;;922.40;972.80;;;;;;5031205;28;20373;-60
2022/04/23 06:19:07;;;;;;;6.32;4.43;;;973.20;921.60;;;;;;5029432;28;20069;-58
2022/04/23 06:21:33;;;;;;;5.55;4.00;;;896.90;998.40;;;;;;5030966;28;20247;-58
2022/04/23 06:23:58;;;;;;;4.15;2.80;;;845.20;1100.80;;;;;;5030918;28;20021;-65
2022/04/23 06:26:25;;;;;;;4.25;3.70;;;793.60;1203.20;;;;;;5031210;28;20053;-60
2022/04/23 06:28:50;;;;;;;4.15;2.38;;;768.10;1228.80;;;;;;5031083;28;20026;-57
2022/04/23 06:31:16;;;;;;;3.20;2.67;;;742.80;1254.40;;;;;;5030875;28;20036;-60
2022/04/23 06:33:42;;;;;;;3.78;2.38;;;742.50;1280.00;;;;;;5030727;28;20018;-57
2022/04/23 06:36:11;;;;;;;2.40;1.80;;;692.10;1280.00;;;;;;5030485;28;20069;-59
2022/04/23 06:38:37;;;;;;;3.40;2.47;;;691.20;1356.80;;;;;;5030467;28;20030;-60
2022/04/23 06:41:03;;;;;;;3.63;2.40;;;666.30;1382.40;;;;;;5030640;28;20037;-60
2022/04/23 06:43:29;;;;;;;6.75;2.70;;;640.90;1382.40;;;;;;5030569;28;20467;-60
2022/04/23 06:45:54;;;;;;;3.53;2.22;;;640.40;1459.20;;;;;;5029272;28;20057;-60
2022/04/23 06:48:20;;;;;;;4.55;2.78;;;640.00;1484.80;;;;;;5030822;28;20033;-59
2022/04/23 06:50:46;;;;;;;3.67;2.30;;;615.30;1459.20;;;;;;5030273;28;20586;-60
2022/04/23 06:53:11;;;;;;;2.38;1.92;;;614.50;1510.40;;;;;;5030204;28;20097;-60
2022/04/23 06:55:37;;;;;;;3.50;2.15;;;614.60;1510.40;;;;;;5030075;28;20494;-61
2022/04/23 06:58:03;;;;;;;3.72;2.42;;;615.00;1484.80;;;;;;5030702;28;20383;-59
2022/04/23 07:00:29;;;;;;;2.85;1.92;;;640.00;1459.20;;;;;;5030431;28;20033;-59
2022/04/23 07:02:55;;;;;;;3.95;2.40;;;640.00;1433.60;;;;;;5028726;28;20041;-58
2022/04/23 07:05:21;;;;;;;4.80;3.33;;;640.00;1459.20;;;;;;5030677;28;20025;-58
2022/04/23 07:08:02;;;;;;;2.83;1.80;;;640.50;1408.00;;;;;;5030222;28;20109;-58
2022/04/23 07:10:30;;;;;;;5.47;3.47;;;615.30;1433.60;;;;;;5029953;28;20033;-60
2022/04/23 07:12:56;;;;;;;3.70;2.10;;;615.00;1459.20;;;;;;5029928;28;20083;-61
2022/04/23 07:15:24;;;;;;;5.47;2.83;;;614.50;1510.40;;;;;;5030398;28;20021;-57
2022/04/23 07:17:50;;;;;;;4.78;2.90;;;614.50;1510.40;;;;;;5030219;28;20027;-59
2022/04/23 07:20:17;;;;;;;6.35;3.55;;;614.80;1484.80;;;;;;5030168;28;20040;-61
2022/04/23 07:25:29;;;;;;;4.45;2.50;;;589.20;1587.20;;;;;;5030290;28;20541;-59
2022/04/23 07:27:55;;;;;;;2.42;1.60;;;589.10;1587.20;;;;;;5030120;28;20076;-61
2022/04/23 07:30:21;;;;;;;40.00;28.30;;;589.20;1561.60;;;;;;5030240;28;20108;-61
2022/04/23 07:32:47;;;;;;;9.18;8.27;;;614.80;1459.20;;;;;;5029740;28;20117;-58
2022/04/23 07:37:57;;;;;;;4.43;4.03;;;845.00;1100.80;;;;;;5029809;28;20152;-63
2022/04/23 07:40:23;;;;;;;3.90;3.55;;;871.00;1024.00;;;;;;5030317;28;20484;-60
2022/04/23 07:42:49;;;;;;;3.35;2.42;;;870.50;1049.60;;;;;;5030053;28;20044;-61
2022/04/23 07:45:14;;;;;;;10.65;9.55;;;819.30;1100.80;;;;;;5029717;28;20025;-62
2022/04/23 07:47:40;;;;;;;4.00;3.47;;;794.20;1126.40;;;;;;5029962;28;20031;-62
2022/04/23 07:50:06;;;;;;;3.60;3.30;;;819.80;1075.20;;;;;;5029697;28;20392;-57
2022/04/23 07:52:35;;;;;;;21.52;19.48;;;819.30;1126.40;;;;;;5029792;28;20468;-60
2022/04/23 07:55:00;;;;;;;21.38;19.38;;;871.00;1049.60;;;;;;5029937;28;20486;-61
2022/04/23 07:57:26;;;;;;;14.75;13.35;;;922.00;972.80;;;;;;5029909;28;20053;-62
2022/04/23 07:59:52;;;;;;;5.45;5.05;;;948.10;921.60;;;;;;5030248;28;20041;-63
2022/04/23 08:02:18;;;;;;;17.70;15.82;;;947.20;921.60;;;;;;5029852;28;20025;-63
2022/04/23 08:04:44;;;;;;;11.32;10.18;;;973.50;921.60;;;;;;5030301;28;20041;-63
2022/04/23 08:07:10;;;;;;;6.78;5.35;;;973.20;896.00;;;;;;5033567;28;20024;-64
2022/04/23 08:09:39;;;;;;;5.05;4.68;;;972.90;896.00;;;;;;5033621;28;20021;-61
2022/04/23 08:12:09;;;;;;;4.95;4.53;;;973.10;870.40;;;;;;5033402;28;20049;-60
2022/04/23 08:14:35;;;;;;;4.85;4.35;;;948.10;896.00;;;;;;5033495;28;20026;-62
2022/04/23 08:17:01;;;;;;;5.68;5.28;;;998.70;870.40;;;;;;5033572;28;20022;-63
2022/04/23 08:19:27;;;;;;;5.22;4.82;;;947.40;896.00;;;;;;5033153;28;20036;-60
2022/04/23 08:21:52;;;;;;;6.03;5.53;;;972.90;896.00;;;;;;5033571;28;20037;-58
2022/04/23 08:24:19;;;;;;;6.10;5.63;;;998.50;896.00;;;;;;5033435;28;20029;-63
2022/04/23 08:26:45;;;;;;;5.82;5.43;;;973.20;870.40;;;;;;5033272;28;20033;-59
2022/04/23 08:31:55;;;;;;;4.03;2.47;;;948.10;844.80;;;;;;5033373;28;20064;-64
2022/04/23 08:34:21;;;;;;;4.68;4.28;;;871.30;896.00;;;;;;5033297;28;20061;-62
2022/04/23 08:36:49;;;;;;;4.93;3.80;;;845.50;972.80;;;;;;5032752;28;20039;-60
2022/04/23 08:39:16;;;;;;;5.00;2.65;;;794.50;1024.00;;;;;;5032903;28;20387;-61
2022/04/23 08:41:45;;;;;;;3.10;2.30;;;742.80;1100.80;;;;;;5033052;28;20095;-62
2022/04/23 08:44:11;;;;;;;3.22;2.40;;;717.70;1100.80;;;;;;5033077;28;20034;-61
2022/04/23 08:46:38;;;;;;;21.35;19.10;;;716.90;1152.00;;;;;;5032745;28;20435;-57
2022/04/23 08:49:16;;;;;;;35.47;31.33;;;691.50;1177.60;;;;;;5032439;28;20025;-56
2022/04/23 08:51:51;;;;;;;9.93;9.02;;;691.30;1203.20;;;;;;5032912;28;20025;-59
2022/04/23 08:54:17;;;;;;;4.00;3.30;;;666.30;1254.40;;;;;;5032595;28;20021;-58
2022/04/23 08:56:44;;;;;;;4.55;2.65;;;666.20;1228.80;;;;;;5032602;28;20060;-56
2022/04/23 08:59:12;;;;;;;3.38;2.47;;;666.20;1228.80;;;;;;5032691;28;20025;-60
2022/04/23 09:01:39;;;;;;;3.63;2.65;;;666.10;1228.80;;;;;;5032480;28;20033;-57
2022/04/23 09:04:06;;;;;;;5.75;3.30;;;665.90;1254.40;;;;;;5032324;28;20032;-61
2022/04/23 09:06:43;;;;;;;6.25;5.65;;;640.90;1254.40;;;;;;5032400;28;20037;-59
2022/04/23 09:09:19;;;;;;;2.55;1.98;;;640.60;1280.00;;;;;;5032504;28;20022;-62
2022/04/23 09:11:50;;;;;;;2.83;2.22;;;640.50;1280.00;;;;;;5031937;28;20025;-57
2022/04/23 09:14:30;;;;;;;3.20;1.85;;;640.90;1280.00;;;;;;5030811;28;20108;-58
2022/04/23 09:25:31;;;;;;;2.13;1.77;;;640.90;1280.00;;;;;;5029116;28;20028;-62
2022/04/23 09:28:12;;;;;;;3.40;1.52;;;666.00;1280.00;;;;;;5031818;28;20030;-60
2022/04/23 09:30:37;;;;;;;2.10;1.55;;;666.30;1254.40;;;;;;5031983;28;20032;-56
2022/04/23 09:33:03;;;;;;;2.70;2.25;;;666.30;1228.80;;;;;;5031980;28;20025;-57
2022/04/23 09:35:29;;;;;;;2.58;1.73;;;665.60;1280.00;;;;;;5031634;28;20164;-57
2022/04/23 09:38:13;;;;;;;4.15;2.20;;;640.80;1254.40;;;;;;5032053;28;20488;-57
2022/04/23 09:40:39;;;;;;;2.92;1.90;;;640.60;1305.60;;;;;;5031630;28;20041;-57
2022/04/23 09:43:06;;;;;;;2.08;1.80;;;640.10;1331.20;;;;;;5031358;28;20468;-62
2022/04/23 09:45:34;;;;;;;2.42;1.88;;;640.10;1331.20;;;;;;5031678;28;20476;-59
2022/04/23 09:48:05;;;;;;;4.05;2.30;;;589.60;1408.00;;;;;;5031673;28;20069;-58
2022/04/23 09:50:38;;;;;;;5.47;2.65;;;589.70;1382.40;;;;;;5031723;28;20025;-57
2022/04/23 09:53:27;;;;;;;3.40;1.77;;;614.40;1382.40;;;;;;5031382;28;20029;-60
2022/04/23 09:56:05;;;;;;;2.10;1.52;;;615.00;1356.80;;;;;;5031458;28;20064;-57
2022/04/23 09:58:33;;;;;;;2.80;1.70;;;615.20;1305.60;;;;;;5031251;28;20029;-55
2022/04/23 10:00:59;;;;;;;1.92;1.60;;;640.00;1305.60;;;;;;5031456;28;20575;-61
2022/04/23 10:03:30;;;;;;;3.47;1.88;;;640.10;1331.20;;;;;;5031008;28;20116;-58
2022/04/23 10:05:57;;;;;;;2.70;2.10;;;640.40;1305.60;;;;;;5031056;28;20055;-59
2022/04/23 10:08:29;;;;;;;2.72;1.85;;;640.60;1382.40;;;;;;5031362;28;20083;-60
2022/04/23 10:11:03;;;;;;;2.75;1.70;;;640.60;1331.20;;;;;;5030957;28;20031;-58
2022/04/23 10:13:30;;;;;;;4.07;2.22;;;640.60;1331.20;;;;;;5031317;28;20373;-61
2022/04/23 10:15:57;;;;;;;2.42;1.90;;;640.30;1408.00;;;;;;5030823;28;20052;-57
2022/04/23 10:18:23;;;;;;;3.10;2.08;;;640.00;1382.40;;;;;;5031037;28;20113;-58
2022/04/23 10:20:55;;;;;;;2.17;1.67;;;640.20;1356.80;;;;;;5030840;28;20033;-59
2022/04/23 10:23:33;;;;;;;5.28;2.40;;;614.80;1356.80;;;;;;5031132;28;20423;-56
2022/04/23 10:26:38;;;;;;;4.07;2.03;;;615.20;1382.40;;;;;;5031033;28;20025;-56
2022/04/23 10:29:11;;;;;;;1.95;1.65;;;640.90;1280.00;;;;;;5030014;28;20486;-55
2022/04/23 10:31:37;;;;;;;2.83;1.63;;;665.70;1280.00;;;;;;5028055;28;20040;-56
2022/04/23 10:34:04;;;;;;;2.50;1.70;;;665.90;1305.60;;;;;;5030270;28;20029;-57
2022/04/23 10:36:29;;;;;;;1.80;1.33;;;666.30;1305.60;;;;;;5030365;28;20025;-56
2022/04/23 10:39:19;;;;;;;1.83;1.40;;;666.20;1305.60;;;;;;5030366;28;20060;-57
2022/04/23 10:41:45;;;;;;;2.03;1.70;;;691.30;1280.00;;;;;;5023433;28;20044;-57
2022/04/23 10:44:12;;;;;;;2.90;1.70;;;691.20;1280.00;;;;;;5030269;28;20096;-57
2022/04/23 10:46:39;;;;;;;2.78;1.70;;;666.40;1254.40;;;;;;5030052;28;20490;-58
2022/04/23 10:49:24;;;;;;;3.45;1.60;;;665.60;1280.00;;;;;;5029870;28;20464;-56
2022/04/23 10:51:54;;;;;;;2.35;1.52;;;665.90;1254.40;;;;;;5010685;28;20037;-56
2022/04/23 10:54:41;;;;;;;2.10;1.55;;;640.80;1254.40;;;;;;5010848;28;20026;-56
2022/04/23 10:57:11;;;;;;;3.08;1.85;;;640.90;1254.40;;;;;;5026451;28;20483;-57
2022/04/23 10:59:45;;;;;;;2.20;2.00;;;665.70;1254.40;;;;;;5029059;28;20029;-55
2022/04/23 11:02:28;;;;;;;2.33;1.60;;;665.70;1254.40;;;;;;5027275;28;20026;-55
2022/04/23 11:12:14;;;;;;;3.00;1.70;;;640.90;1254.40;;;;;;5027375;28;20109;-56
2022/04/23 11:13:28;;;;;;;3.13;2.20;;;640.70;1254.40;;;;;;5027501;28;20033;-56
2022/04/23 11:16:14;;;;;;;2.95;1.98;;;640.90;1254.40;;;;;;5027072;28;20021;-55
2022/04/23 11:18:41;;;;;;;3.33;1.90;;;615.30;1331.20;;;;;;5030153;28;20033;-56
2022/04/23 11:21:54;;;;;;;5.07;1.52;;;640.90;1305.60;;;;;;5032780;28;20034;-54
2022/04/23 11:24:20;;;;;;;2.28;1.65;;;640.90;1254.40;;;;;;5032890;28;20029;-55
2022/04/23 11:26:47;;;;;;;2.75;2.35;;;640.60;1254.40;;;;;;5033093;28;20479;-58
2022/04/23 11:29:17;;;;;;;1.92;1.40;;;640.90;1280.00;;;;;;5033148;28;20024;-56
2022/04/23 11:31:53;;;;;;;2.05;1.30;;;666.10;1280.00;;;;;;5032902;28;20397;-55
2022/04/23 11:34:19;;;;;;;4.32;2.20;;;665.60;1254.40;;;;;;5032425;28;20046;-55
2022/04/23 11:36:45;;;;;;;3.58;2.65;;;640.10;1433.60;;;;;;5032623;28;20168;-55
2022/04/23 11:39:13;;;;;;;3.60;2.72;;;615.00;1459.20;;;;;;5034588;28;20108;-55
2022/04/23 11:41:51;;;;;;;4.88;2.85;;;589.70;1510.40;;;;;;5036968;28;20049;-57
2022/04/23 11:44:46;;;;;;;3.78;2.08;;;589.50;1536.00;;;;;;5036846;28;20022;-58
2022/04/23 11:47:12;;;;;;;3.78;2.40;;;589.20;1536.00;;;;;;5036536;28;20045;-54
2022/04/23 11:49:38;;;;;;;3.97;2.40;;;589.60;1536.00;;;;;;5037595;28;20029;-55
2022/04/23 11:52:10;;;;;;;4.05;2.72;;;589.20;1561.60;;;;;;5036554;28;20526;-55
2022/04/23 11:54:40;;;;;;;3.58;2.47;;;589.20;1561.60;;;;;;5036402;28;20026;-62
2022/04/23 11:57:09;;;;;;;3.53;2.38;;;589.40;1536.00;;;;;;5036402;28;20026;-55
2022/04/23 11:59:42;;;;;;;4.43;2.60;;;589.10;1561.60;;;;;;5036264;28;20379;-59
2022/04/23 12:02:23;;;;;;;4.00;2.75;;;614.40;1510.40;;;;;;5036353;28;20040;-59
2022/04/23 12:07:44;;;;;;;4.25;2.78;;;614.70;1484.80;;;;;;5034371;28;20041;-56
2022/04/23 12:10:09;;;;;;;4.82;2.78;;;614.70;1484.80;;;;;;5034114;28;20415;-55
2022/04/23 12:12:35;;;;;;;4.93;3.20;;;615.30;1484.80;;;;;;5034201;28;20030;-59
2022/04/23 12:15:08;;;;;;;4.32;2.78;;;640.00;1459.20;;;;;;5033946;28;20025;-55
2022/04/23 12:17:49;;;;;;;2.90;1.98;;;589.70;1484.80;;;;;;5034183;28;20084;-56
2022/04/23 12:23:40;;;;;;;3.65;2.00;;;589.40;1510.40;;;;;;5034132;28;20033;-58
2022/04/23 12:26:09;;;;;;;2.65;1.90;;;589.30;1536.00;;;;;;5033803;28;20045;-55
2022/04/23 12:43:28;;;;;;;2.92;2.00;;;614.80;1408.00;;;;;;5036165;28;20041;-56
2022/04/23 12:46:09;;;;;;;3.95;2.50;;;614.70;1510.40;;;;;;5035759;28;20025;-56
2022/04/23 12:49:00;;;;;;;2.88;2.05;;;614.90;1433.60;;;;;;5035649;28;20022;-56
2022/04/23 12:51:26;;;;;;;2.83;1.90;;;614.50;1433.60;;;;;;5035269;28;20021;-54
2022/04/23 12:53:52;;;;;;;3.33;1.85;;;614.60;1433.60;;;;;;5036010;28;20030;-58
2022/04/23 12:56:19;;;;;;;3.22;2.38;;;614.60;1459.20;;;;;;5035708;28;20369;-56
2022/04/23 12:58:45;;;;;;;2.78;1.83;;;589.60;1484.80;;;;;;5035270;28;20029;-56
2022/04/23 13:01:12;;;;;;;2.47;1.80;;;589.50;1459.20;;;;;;5035234;28;20045;-54
2022/04/23 13:03:44;;;;;;;3.00;1.90;;;589.10;1484.80;;;;;;5035033;28;20045;-55
2022/04/23 13:08:55;;;;;;;4.57;3.08;;;589.00;1561.60;;;;;;5035630;28;20763;-58
2022/04/23 13:11:30;;;;;;;3.60;2.47;;;589.00;1561.60;;;;;;5035160;28;20099;-57